Time;durP1;ratioP1;P1;durP2;ratioP2;P2;SDS_P1;SDS_P2;PMS_P1;PMS_P2;Temp;Humidity;BMP_temperature;BMP_pressure;BME280_temperature;BME280_humidity;BME280_pressure;Samples;Min_cycle;Max_cycle;Signal;HPM_P1;HPM_P2
2023/01/21 00:02:17;;;;;;;0.20;0.20;;;-0.30;99.90;;;;;;5098484;28;20448;-87
2023/01/21 00:04:43;;;;;;;0.37;0.37;;;-0.50;99.90;;;;;;5097419;28;20044;-86
2023/01/21 00:07:08;;;;;;;2.37;2.17;;;-0.50;99.90;;;;;;5097290;28;20091;-86
2023/01/21 00:09:34;;;;;;;2.40;2.20;;;-0.50;99.90;;;;;;5098528;28;20119;-85
2023/01/21 00:12:03;;;;;;;1.53;1.43;;;-0.40;99.90;;;;;;5096834;28;20044;-86
2023/01/21 00:14:29;;;;;;;0.20;0.20;;;-0.50;99.90;;;;;;5095639;28;20044;-86
2023/01/21 00:16:55;;;;;;;1.73;1.63;;;-0.50;99.90;;;;;;5096692;28;20046;-86
2023/01/21 00:19:20;;;;;;;1.93;1.83;;;-0.60;99.90;;;;;;5097569;28;20071;-86
2023/01/21 00:21:46;;;;;;;3.37;0.83;;;-0.60;99.90;;;;;;5095750;28;20465;-85
2023/01/21 00:24:12;;;;;;;2.90;1.53;;;-0.60;99.90;;;;;;5100457;28;20096;-85
2023/01/21 00:26:37;;;;;;;0.30;0.30;;;-0.60;99.90;;;;;;5100932;28;20391;-85
2023/01/21 00:29:03;;;;;;;1.30;0.93;;;-0.60;99.90;;;;;;5100142;28;20403;-86
2023/01/21 00:31:28;;;;;;;0.60;0.60;;;-0.60;99.90;;;;;;5098517;28;20040;-86
2023/01/21 00:33:54;;;;;;;1.13;1.03;;;-0.70;99.90;;;;;;5100561;28;20552;-86
2023/01/21 00:36:21;;;;;;;1.70;1.60;;;-0.70;99.90;;;;;;5100314;28;20071;-86
2023/01/21 00:38:50;;;;;;;1.10;1.00;;;-0.80;99.90;;;;;;5100193;28;20052;-86
2023/01/21 00:41:16;;;;;;;1.40;1.30;;;-0.90;99.90;;;;;;5100175;28;20039;-86
2023/01/21 00:43:42;;;;;;;2.63;0.97;;;-1.10;99.90;;;;;;5100316;28;20040;-86
2023/01/21 00:46:09;;;;;;;0.37;0.37;;;-1.20;99.90;;;;;;5100337;28;20398;-86
2023/01/21 00:48:35;;;;;;;0.40;0.40;;;-1.40;99.90;;;;;;5099497;28;20040;-86
2023/01/21 00:51:01;;;;;;;3.83;2.77;;;-1.60;99.90;;;;;;5099166;28;20103;-86
2023/01/21 00:53:30;;;;;;;0.30;0.30;;;-1.80;99.90;;;;;;5099799;28;20054;-86
2023/01/21 00:56:00;;;;;;;0.13;0.13;;;-2.00;99.90;;;;;;5100509;28;20036;-86
2023/01/21 00:58:26;;;;;;;1.47;1.37;;;-2.20;99.90;;;;;;5098416;28;20126;-86
2023/01/21 01:01:06;;;;;;;4.33;0.93;;;-2.40;99.90;;;;;;5099312;28;20067;-86
2023/01/21 01:03:33;;;;;;;3.00;1.27;;;-2.60;99.90;;;;;;5099651;28;20097;-86
2023/01/21 01:06:03;;;;;;;0.20;0.20;;;-2.80;99.90;;;;;;5098614;28;20048;-86
2023/01/21 01:08:28;;;;;;;0.30;0.30;;;-2.90;99.90;;;;;;5097459;28;20088;-85
2023/01/21 01:10:54;;;;;;;0.17;0.17;;;-3.00;99.90;;;;;;5097977;28;20530;-85
2023/01/21 01:13:19;;;;;;;0.03;0.03;;;-3.10;99.90;;;;;;5096596;28;20044;-86
2023/01/21 01:15:46;;;;;;;0.00;0.00;;;-3.20;99.90;;;;;;5097401;28;20384;-86
2023/01/21 01:18:11;;;;;;;0.30;0.30;;;-3.20;99.90;;;;;;5097784;28;20402;-86
2023/01/21 01:20:42;;;;;;;0.43;0.43;;;-3.00;99.90;;;;;;5097569;28;20074;-85
2023/01/21 01:23:07;;;;;;;0.40;0.40;;;-3.00;99.90;;;;;;5097488;28;20532;-85
2023/01/21 01:25:34;;;;;;;1.07;1.07;;;-3.00;99.90;;;;;;5098180;28;20040;-85
2023/01/21 01:27:59;;;;;;;1.33;1.23;;;-3.10;99.90;;;;;;5097302;28;20101;-86
2023/01/21 01:30:25;;;;;;;0.00;0.00;;;-2.90;99.90;;;;;;5097191;28;20044;-86
2023/01/21 01:32:50;;;;;;;0.00;0.00;;;-2.90;99.90;;;;;;5097517;28;20039;-85
2023/01/21 01:35:16;;;;;;;2.27;1.87;;;-3.00;99.90;;;;;;5097105;28;20036;-86
2023/01/21 01:37:41;;;;;;;0.27;0.27;;;-3.10;99.90;;;;;;5096673;28;20170;-86
2023/01/21 01:40:09;;;;;;;1.80;1.67;;;-3.20;99.90;;;;;;5097414;28;20483;-86
2023/01/21 01:42:34;;;;;;;0.00;0.00;;;-3.30;99.90;;;;;;5097870;28;20040;-85
2023/01/21 01:45:04;;;;;;;1.97;1.23;;;-3.30;99.90;;;;;;5097711;28;20043;-85
2023/01/21 01:47:41;;;;;;;0.43;0.43;;;-3.30;99.90;;;;;;5097365;28;20062;-85
2023/01/21 01:50:11;;;;;;;0.20;0.20;;;-3.40;99.90;;;;;;5095820;28;20086;-86
2023/01/21 01:52:37;;;;;;;0.00;0.00;;;-3.40;99.90;;;;;;5096051;28;20044;-86
2023/01/21 01:55:05;;;;;;;0.20;0.20;;;-3.50;99.90;;;;;;5095636;28;20044;-87
2023/01/21 01:57:42;;;;;;;0.10;0.10;;;-3.40;99.90;;;;;;5095347;28;20040;-86
2023/01/21 02:00:10;;;;;;;0.50;0.50;;;-3.50;99.90;;;;;;5095157;28;20055;-86
2023/01/21 02:02:39;;;;;;;0.30;0.30;;;-3.60;99.90;;;;;;5095559;28;20071;-86
2023/01/21 02:05:07;;;;;;;0.20;0.20;;;-3.70;99.90;;;;;;5095920;28;20083;-86
2023/01/21 02:07:38;;;;;;;0.40;0.40;;;-3.80;99.90;;;;;;5095583;28;20087;-86
2023/01/21 02:10:13;;;;;;;0.10;0.10;;;-3.80;99.90;;;;;;5095704;28;20074;-86
2023/01/21 02:12:42;;;;;;;0.45;0.45;;;-3.90;99.90;;;;;;5095401;28;20044;-87
2023/01/21 02:15:08;;;;;;;1.07;0.37;;;-3.80;99.90;;;;;;5095205;28;20048;-87
2023/01/21 02:17:49;;;;;;;0.27;0.27;;;-3.80;99.90;;;;;;5094744;28;20387;-86
2023/01/21 02:20:40;;;;;;;0.10;0.10;;;-3.70;99.90;;;;;;5094454;28;20369;-85
2023/01/21 02:23:15;;;;;;;0.07;0.07;;;-3.70;99.90;;;;;;5094515;28;20847;-85
2023/01/21 02:26:00;;;;;;;0.10;0.10;;;-3.80;99.90;;;;;;5094855;28;20487;-86
2023/01/21 02:28:54;;;;;;;0.50;0.50;;;-3.80;99.90;;;;;;5094723;28;20044;-86
2023/01/21 02:31:46;;;;;;;0.77;0.77;;;-3.80;99.90;;;;;;5095130;28;20040;-85
2023/01/21 02:34:56;;;;;;;0.30;0.30;;;-3.70;99.90;;;;;;5094781;28;20048;-86
2023/01/21 02:37:34;;;;;;;1.20;0.97;;;-3.80;99.90;;;;;;5060323;28;20048;-85
2023/01/21 02:40:46;;;;;;;0.97;0.97;;;-3.80;99.90;;;;;;5074998;28;20043;-85
2023/01/21 02:43:31;;;;;;;0.60;0.60;;;-3.80;99.90;;;;;;5081358;28;20511;-86
2023/01/21 02:46:08;;;;;;;0.10;0.10;;;-3.90;99.90;;;;;;5078595;28;20063;-86
2023/01/21 02:48:44;;;;;;;0.30;0.30;;;-3.80;99.90;;;;;;5083361;28;20048;-85
2023/01/21 02:51:12;;;;;;;0.00;0.00;;;-3.80;99.90;;;;;;5098805;28;20063;-85
2023/01/21 02:53:38;;;;;;;0.73;0.73;;;-3.80;99.90;;;;;;5098877;28;20036;-86
2023/01/21 02:56:03;;;;;;;0.57;0.57;;;-3.70;99.90;;;;;;5098771;28;20101;-86
2023/01/21 02:58:33;;;;;;;1.40;1.30;;;-3.60;99.90;;;;;;5097647;28;20048;-85
2023/01/21 03:01:28;;;;;;;0.20;0.20;;;-3.30;99.90;;;;;;5098688;28;20048;-85
2023/01/21 03:04:21;;;;;;;3.60;3.10;;;-3.10;99.90;;;;;;5098817;28;20083;-85
2023/01/21 03:07:15;;;;;;;0.10;0.10;;;-2.90;99.90;;;;;;5098383;28;20048;-86
2023/01/21 03:09:41;;;;;;;0.40;0.40;;;-2.70;99.90;;;;;;5098459;28;20055;-86
2023/01/21 03:12:28;;;;;;;2.80;1.53;;;-2.60;99.90;;;;;;5098390;28;20047;-86
2023/01/21 03:18:08;;;;;;;2.00;1.00;;;-2.50;99.90;;;;;;5097624;28;20127;-86
2023/01/21 03:20:41;;;;;;;0.40;0.40;;;-2.40;99.90;;;;;;5097432;28;20402;-85
2023/01/21 03:23:20;;;;;;;0.20;0.20;;;-2.40;99.90;;;;;;5097043;28;20079;-86
2023/01/21 03:25:48;;;;;;;0.87;0.87;;;-2.50;99.90;;;;;;5099310;28;20076;-86
2023/01/21 03:28:25;;;;;;;0.10;0.10;;;-2.50;99.90;;;;;;5099056;28;20093;-85
2023/01/21 03:30:57;;;;;;;0.10;0.10;;;-2.50;99.90;;;;;;5098207;28;20048;-85
2023/01/21 03:33:24;;;;;;;1.60;1.50;;;-2.50;99.90;;;;;;5098019;28;20120;-86
2023/01/21 03:35:53;;;;;;;0.50;0.50;;;-2.40;99.90;;;;;;5098244;28;20138;-85
2023/01/21 03:38:30;;;;;;;0.13;0.13;;;-2.30;99.90;;;;;;5098174;28;20056;-85
2023/01/21 03:41:01;;;;;;;1.13;1.10;;;-2.20;99.90;;;;;;5098556;28;20102;-85
2023/01/21 03:43:27;;;;;;;0.20;0.20;;;-2.20;99.90;;;;;;5098182;28;20044;-85
2023/01/21 03:46:47;;;;;;;2.17;1.50;;;-2.20;99.90;;;;;;5098167;28;20047;-86
2023/01/21 03:49:21;;;;;;;1.57;1.47;;;-2.30;99.90;;;;;;5020381;28;20038;-85
2023/01/21 03:51:56;;;;;;;0.20;0.20;;;-2.30;99.90;;;;;;5096622;28;20063;-86
2023/01/21 03:54:22;;;;;;;0.50;0.50;;;-2.30;99.90;;;;;;5097627;28;20032;-85
2023/01/21 03:56:48;;;;;;;0.67;0.67;;;-2.20;99.90;;;;;;5096913;28;20032;-85
2023/01/21 03:59:13;;;;;;;0.43;0.43;;;-2.10;99.90;;;;;;5097151;28;20555;-85
2023/01/21 04:01:40;;;;;;;3.00;2.80;;;-2.00;99.90;;;;;;5097755;28;20043;-85
2023/01/21 04:04:07;;;;;;;0.10;0.10;;;-1.90;99.90;;;;;;5097573;28;20510;-86
2023/01/21 04:06:34;;;;;;;0.30;0.30;;;-1.90;99.90;;;;;;5091592;28;20174;-86
2023/01/21 04:09:00;;;;;;;0.50;0.50;;;-1.90;99.90;;;;;;5096036;28;20130;-85
2023/01/21 04:11:26;;;;;;;5.00;1.40;;;-1.90;99.90;;;;;;5096387;28;20452;-85
2023/01/21 04:13:51;;;;;;;1.23;1.13;;;-1.90;99.90;;;;;;5098086;28;20475;-86
2023/01/21 04:16:17;;;;;;;0.30;0.30;;;-1.90;99.90;;;;;;5096835;28;20036;-86
2023/01/21 04:18:43;;;;;;;0.20;0.20;;;-1.90;99.90;;;;;;5096450;28;20051;-85
2023/01/21 04:21:08;;;;;;;1.90;0.73;;;-1.90;99.90;;;;;;5096835;28;20040;-86
2023/01/21 04:23:34;;;;;;;1.70;1.60;;;-1.90;99.90;;;;;;5097067;28;20044;-86
2023/01/21 04:25:59;;;;;;;3.53;0.73;;;-1.80;99.90;;;;;;5096991;28;20051;-85
2023/01/21 04:28:25;;;;;;;0.87;0.63;;;-1.80;99.90;;;;;;5097186;28;20144;-85
2023/01/21 04:30:50;;;;;;;1.10;0.40;;;-1.80;99.90;;;;;;5095925;28;20492;-86
2023/01/21 04:33:17;;;;;;;0.80;0.80;;;-1.90;99.90;;;;;;5096363;28;20047;-85
2023/01/21 04:35:42;;;;;;;0.77;0.77;;;-2.00;99.90;;;;;;5097798;28;20043;-85
2023/01/21 04:38:08;;;;;;;5.20;1.90;;;-2.10;99.90;;;;;;5096957;28;20126;-85
2023/01/21 04:40:34;;;;;;;1.83;1.13;;;-2.20;99.90;;;;;;5069898;28;20044;-85
2023/01/21 04:43:00;;;;;;;1.40;1.30;;;-2.10;99.90;;;;;;5076883;28;20510;-85
2023/01/21 04:45:25;;;;;;;0.20;0.20;;;-2.10;99.90;;;;;;5077026;28;20427;-86
2023/01/21 04:47:51;;;;;;;0.40;0.40;;;-2.00;99.90;;;;;;5076120;28;20040;-86
2023/01/21 04:50:17;;;;;;;0.50;0.50;;;-1.70;99.90;;;;;;5082232;28;20076;-86
2023/01/21 04:52:42;;;;;;;2.30;2.10;;;-1.60;99.90;;;;;;5096500;28;20117;-87
2023/01/21 04:55:08;;;;;;;0.70;0.70;;;-1.50;99.90;;;;;;5096518;28;20044;-86
2023/01/21 04:57:35;;;;;;;1.63;1.53;;;-1.50;99.90;;;;;;5096367;28;20040;-85
2023/01/21 05:00:01;;;;;;;0.20;0.20;;;-1.40;99.90;;;;;;5096247;28;20105;-85
2023/01/21 05:02:26;;;;;;;0.43;0.43;;;-1.30;99.90;;;;;;5096782;28;20044;-86
2023/01/21 05:04:52;;;;;;;0.27;0.27;;;-1.30;99.90;;;;;;5097086;28;20072;-85
2023/01/21 05:07:18;;;;;;;1.43;1.33;;;-1.20;99.90;;;;;;5096633;28;20043;-86
2023/01/21 05:09:43;;;;;;;1.90;1.80;;;-1.10;99.90;;;;;;5096223;28;20048;-85
2023/01/21 05:12:09;;;;;;;0.43;0.43;;;-1.10;99.90;;;;;;5078549;28;20110;-85
2023/01/21 05:14:35;;;;;;;0.30;0.30;;;-1.10;99.90;;;;;;5097882;28;20372;-85
2023/01/21 05:17:00;;;;;;;0.10;0.10;;;-1.10;99.90;;;;;;5095941;28;20051;-85
2023/01/21 05:19:26;;;;;;;2.33;1.53;;;-1.00;99.90;;;;;;5096158;28;20096;-85
2023/01/21 05:21:52;;;;;;;0.83;0.83;;;-1.00;99.90;;;;;;5096277;28;20511;-85
2023/01/21 05:24:17;;;;;;;0.97;0.93;;;-1.00;99.90;;;;;;5096782;28;20403;-85
2023/01/21 05:26:43;;;;;;;1.63;1.53;;;-0.90;99.90;;;;;;5096151;28;20043;-85
2023/01/21 05:29:09;;;;;;;2.10;2.00;;;-0.90;99.90;;;;;;5095877;28;20551;-85
2023/01/21 05:31:35;;;;;;;1.00;0.80;;;-0.90;99.90;;;;;;5096054;28;20055;-85
2023/01/21 05:34:00;;;;;;;2.83;0.83;;;-0.90;99.90;;;;;;5095414;28;20043;-85
2023/01/21 05:36:26;;;;;;;0.97;0.97;;;-0.90;99.90;;;;;;5095869;28;20040;-85
2023/01/21 05:38:52;;;;;;;1.03;0.60;;;-0.90;99.90;;;;;;5096225;28;20032;-85
2023/01/21 05:41:18;;;;;;;2.33;2.17;;;-0.90;99.90;;;;;;5096280;28;20536;-86
2023/01/21 05:43:43;;;;;;;0.80;0.80;;;-0.90;99.90;;;;;;5096704;28;20043;-85
2023/01/21 05:46:09;;;;;;;2.17;2.00;;;-0.80;99.90;;;;;;5096664;28;20556;-85
2023/01/21 05:48:34;;;;;;;2.53;1.83;;;-0.80;99.90;;;;;;5095719;28;20036;-86
2023/01/21 05:51:00;;;;;;;2.17;1.80;;;-0.80;99.90;;;;;;5096249;28;20059;-86
2023/01/21 05:53:26;;;;;;;2.00;1.33;;;-0.80;99.90;;;;;;5096861;28;20040;-85
2023/01/21 05:55:55;;;;;;;0.37;0.37;;;-0.80;99.90;;;;;;5095849;28;20047;-85
2023/01/21 05:58:22;;;;;;;1.10;0.77;;;-0.80;99.90;;;;;;5095995;28;20506;-86
2023/01/21 06:00:48;;;;;;;0.67;0.67;;;-0.80;99.90;;;;;;5096663;28;20044;-86
2023/01/21 06:03:16;;;;;;;0.17;0.17;;;-0.80;99.90;;;;;;5097464;28;20044;-86
2023/01/21 06:05:42;;;;;;;1.43;1.33;;;-0.80;99.90;;;;;;5096210;28;20118;-85
2023/01/21 06:08:09;;;;;;;0.90;0.90;;;-0.80;99.90;;;;;;5095737;28;20036;-86
2023/01/21 06:10:34;;;;;;;3.90;1.30;;;-0.80;99.90;;;;;;5096186;28;20051;-85
2023/01/21 06:13:00;;;;;;;2.00;0.93;;;-0.80;99.90;;;;;;5096162;28;20044;-85
2023/01/21 06:15:25;;;;;;;1.23;1.17;;;-0.80;99.90;;;;;;5096396;28;20048;-86
2023/01/21 06:17:52;;;;;;;0.83;0.83;;;-0.80;99.90;;;;;;5095593;28;20049;-85
2023/01/21 06:20:17;;;;;;;0.70;0.70;;;-0.90;99.90;;;;;;5099295;28;20050;-84
2023/01/21 06:22:43;;;;;;;2.53;2.07;;;-0.90;99.90;;;;;;5099779;28;20039;-85
2023/01/21 06:25:09;;;;;;;0.80;0.80;;;-1.00;99.90;;;;;;5099788;28;20101;-86
2023/01/21 06:27:38;;;;;;;0.87;0.87;;;-1.00;99.90;;;;;;5099013;28;20550;-85
2023/01/21 06:30:08;;;;;;;2.73;2.50;;;-1.00;99.90;;;;;;5099400;28;20447;-86
2023/01/21 06:32:34;;;;;;;2.17;0.77;;;-1.00;99.90;;;;;;5100165;28;20402;-85
2023/01/21 06:35:00;;;;;;;0.93;0.90;;;-1.10;99.90;;;;;;5100040;28;20040;-86
2023/01/21 06:37:26;;;;;;;0.20;0.20;;;-1.00;99.90;;;;;;5098838;28;20092;-85
2023/01/21 06:39:51;;;;;;;1.30;1.23;;;-1.00;99.90;;;;;;5099700;28;20047;-85
2023/01/21 06:42:17;;;;;;;0.65;0.65;;;-1.00;99.90;;;;;;5098284;28;20036;-85
2023/01/21 06:44:43;;;;;;;1.27;1.20;;;-0.90;99.90;;;;;;5099833;28;20037;-85
2023/01/21 06:47:09;;;;;;;0.47;0.47;;;-0.90;99.90;;;;;;5099284;28;20032;-85
2023/01/21 06:49:35;;;;;;;1.10;1.10;;;-0.90;99.90;;;;;;5098990;28;20111;-85
2023/01/21 06:52:01;;;;;;;0.63;0.63;;;-0.90;99.90;;;;;;5098627;28;20051;-84
2023/01/21 06:54:26;;;;;;;2.67;2.47;;;-1.00;99.90;;;;;;5098503;28;20048;-85
2023/01/21 06:56:52;;;;;;;2.37;2.10;;;-1.00;99.90;;;;;;5099144;28;20131;-85
2023/01/21 06:59:18;;;;;;;2.00;1.40;;;-1.10;99.90;;;;;;5099632;28;20072;-84
2023/01/21 07:01:44;;;;;;;2.93;1.53;;;-1.10;99.90;;;;;;5098847;28;20472;-85
2023/01/21 07:04:09;;;;;;;0.53;0.53;;;-1.20;99.90;;;;;;5099747;28;20122;-85
2023/01/21 07:06:35;;;;;;;0.32;0.32;;;-1.20;99.90;;;;;;5099568;28;20499;-84
2023/01/21 07:09:02;;;;;;;1.10;1.10;;;-1.20;99.90;;;;;;5099397;28;20062;-84
2023/01/21 07:11:28;;;;;;;0.10;0.10;;;-1.30;99.90;;;;;;5099190;28;20403;-84
2023/01/21 07:13:54;;;;;;;1.03;0.93;;;-1.30;99.90;;;;;;5099234;28;20036;-84
2023/01/21 07:16:19;;;;;;;0.50;0.50;;;-1.20;99.90;;;;;;5098661;28;20036;-84
2023/01/21 07:18:45;;;;;;;0.23;0.23;;;-1.30;99.90;;;;;;5099507;28;20046;-84
2023/01/21 07:21:10;;;;;;;2.63;0.93;;;-1.30;99.90;;;;;;5098496;28;20040;-84
2023/01/21 07:23:36;;;;;;;0.20;0.20;;;-1.50;99.90;;;;;;5098888;28;20047;-85
2023/01/21 07:26:02;;;;;;;0.75;0.75;;;-1.60;99.90;;;;;;5099125;28;20032;-85
2023/01/21 07:28:27;;;;;;;0.40;0.40;;;-1.70;99.90;;;;;;5099146;28;20048;-84
2023/01/21 07:30:53;;;;;;;0.10;0.10;;;-1.80;99.90;;;;;;5098593;28;20123;-85
2023/01/21 07:33:18;;;;;;;1.03;1.00;;;-1.90;99.90;;;;;;5098646;28;20438;-85
2023/01/21 07:35:44;;;;;;;0.10;0.10;;;-2.00;99.90;;;;;;5098942;28;20044;-85
2023/01/21 07:38:09;;;;;;;0.30;0.30;;;-2.20;99.90;;;;;;5098532;28;20085;-84
2023/01/21 07:40:35;;;;;;;0.77;0.77;;;-2.30;99.90;;;;;;5095546;28;20040;-84
2023/01/21 07:43:00;;;;;;;0.17;0.17;;;-2.30;99.90;;;;;;5099409;28;20123;-85
2023/01/21 07:45:26;;;;;;;2.57;1.13;;;-2.40;99.90;;;;;;5100269;28;20040;-84
2023/01/21 07:47:52;;;;;;;0.63;0.63;;;-2.50;99.90;;;;;;5100289;28;20032;-85
2023/01/21 07:50:17;;;;;;;0.73;0.73;;;-2.50;99.90;;;;;;5101929;28;20059;-85
2023/01/21 07:52:43;;;;;;;2.47;2.17;;;-2.60;99.90;;;;;;5100634;28;20054;-85
2023/01/21 07:55:09;;;;;;;0.43;0.23;;;-2.60;99.90;;;;;;5081173;28;20037;-84
2023/01/21 07:57:35;;;;;;;0.43;0.43;;;-2.60;99.90;;;;;;5098999;28;20079;-84
2023/01/21 08:00:00;;;;;;;1.57;1.47;;;-2.60;99.90;;;;;;5099054;28;20047;-84
2023/01/21 08:02:26;;;;;;;0.80;0.80;;;-2.70;99.90;;;;;;5099742;28;20101;-84
2023/01/21 08:04:51;;;;;;;0.50;0.50;;;-2.60;99.90;;;;;;5101362;28;20074;-85
2023/01/21 08:07:17;;;;;;;0.37;0.37;;;-2.60;99.90;;;;;;5101763;28;20043;-84
2023/01/21 08:09:42;;;;;;;0.15;0.15;;;-2.60;99.90;;;;;;5103873;28;20044;-85
2023/01/21 08:12:08;;;;;;;0.10;0.10;;;-2.50;99.90;;;;;;5103523;28;20047;-84
2023/01/21 08:14:34;;;;;;;1.63;1.53;;;-2.40;99.90;;;;;;5100817;28;20655;-84
2023/01/21 08:17:00;;;;;;;1.17;1.17;;;-2.20;99.90;;;;;;5098294;28;20089;-84
2023/01/21 08:19:26;;;;;;;0.47;0.47;;;-2.00;99.90;;;;;;5097212;28;20044;-84
2023/01/21 08:21:51;;;;;;;1.57;1.13;;;-1.90;99.90;;;;;;5098884;28;20040;-84
2023/01/21 08:24:17;;;;;;;0.50;0.50;;;-1.80;99.90;;;;;;5099109;28;20051;-84
2023/01/21 08:26:43;;;;;;;1.67;1.57;;;-1.80;99.90;;;;;;5099616;28;20078;-84
2023/01/21 08:29:09;;;;;;;0.37;0.37;;;-1.80;99.90;;;;;;5101896;28;20079;-84
2023/01/21 08:31:34;;;;;;;1.10;1.10;;;-1.80;99.90;;;;;;5098091;28;20044;-85
2023/01/21 08:34:00;;;;;;;0.32;0.32;;;-1.80;99.90;;;;;;5097701;28;20044;-84
2023/01/21 08:36:25;;;;;;;0.40;0.40;;;-1.70;99.90;;;;;;5097706;28;20107;-84
2023/01/21 08:38:57;;;;;;;4.37;3.20;;;-1.70;99.90;;;;;;5097774;28;20051;-85
2023/01/21 08:41:24;;;;;;;1.00;1.00;;;-1.80;99.90;;;;;;5100214;28;20088;-84
2023/01/21 08:43:50;;;;;;;3.03;1.87;;;-1.80;99.90;;;;;;5102350;28;20051;-84
2023/01/21 08:46:15;;;;;;;0.10;0.10;;;-1.90;99.90;;;;;;5102001;28;20092;-84
2023/01/21 08:48:41;;;;;;;0.67;0.67;;;-1.90;99.90;;;;;;5102129;28;20086;-83
2023/01/21 08:51:06;;;;;;;0.10;0.10;;;-1.90;99.90;;;;;;5101709;28;20082;-83
2023/01/21 08:53:32;;;;;;;0.77;0.73;;;-1.90;99.90;;;;;;5102006;28;20048;-83
2023/01/21 08:55:59;;;;;;;5.97;1.97;;;-1.80;99.90;;;;;;5102327;28;20040;-83
2023/01/21 08:58:25;;;;;;;0.70;0.70;;;-1.70;99.90;;;;;;5101821;28;20071;-83
2023/01/21 09:00:51;;;;;;;0.83;0.83;;;-1.50;99.90;;;;;;5100675;28;20036;-83
2023/01/21 09:03:18;;;;;;;1.60;1.50;;;-1.30;99.90;;;;;;5099603;28;20047;-83
2023/01/21 09:05:44;;;;;;;1.53;1.43;;;-1.10;99.90;;;;;;5099880;28;20119;-83
2023/01/21 09:08:10;;;;;;;1.60;1.50;;;-1.00;99.90;;;;;;5099327;28;20054;-84
2023/01/21 09:13:20;;;;;;;2.20;2.00;;;-0.90;99.90;;;;;;5099317;28;20395;-83
2023/01/21 09:15:46;;;;;;;0.77;0.77;;;-1.00;99.90;;;;;;5098332;28;20050;-83
2023/01/21 09:18:11;;;;;;;0.53;0.53;;;-1.10;99.90;;;;;;5100018;28;20076;-83
2023/01/21 09:20:38;;;;;;;2.20;1.23;;;-1.10;99.90;;;;;;5101303;28;20040;-83
2023/01/21 09:23:22;;;;;;;0.40;0.40;;;-1.20;99.90;;;;;;5101554;28;20407;-83
2023/01/21 09:26:09;;;;;;;0.73;0.73;;;-1.20;99.90;;;;;;5082209;28;20499;-84
2023/01/21 09:28:38;;;;;;;2.20;1.55;;;-1.20;99.90;;;;;;5082132;28;20063;-83
2023/01/21 09:31:06;;;;;;;1.43;1.23;;;-1.20;99.90;;;;;;5100591;28;20096;-83
2023/01/21 09:33:34;;;;;;;0.50;0.50;;;-1.20;99.90;;;;;;5099889;28;20371;-83
2023/01/21 09:36:01;;;;;;;0.57;0.57;;;-1.10;99.90;;;;;;5100321;28;20036;-83
2023/01/21 09:38:28;;;;;;;0.67;0.67;;;-1.10;99.90;;;;;;5099920;28;20043;-83
2023/01/21 09:41:00;;;;;;;2.23;2.03;;;-1.10;99.90;;;;;;5100649;28;20071;-83
2023/01/21 09:43:50;;;;;;;0.17;0.17;;;-1.10;99.90;;;;;;5100897;28;20048;-83
2023/01/21 09:46:25;;;;;;;0.33;0.33;;;-1.00;99.90;;;;;;5100281;28;20048;-83
2023/01/21 09:48:52;;;;;;;0.20;0.20;;;-0.90;99.90;;;;;;5099778;28;20411;-83
2023/01/21 09:51:35;;;;;;;0.10;0.10;;;-0.70;99.90;;;;;;5099987;28;20048;-83
2023/01/21 09:54:02;;;;;;;0.35;0.35;;;-0.50;99.90;;;;;;5103703;28;20048;-83
2023/01/21 09:56:40;;;;;;;1.80;1.70;;;-0.40;99.90;;;;;;5103776;28;20343;-83
2023/01/21 09:59:11;;;;;;;1.65;1.55;;;-0.30;99.90;;;;;;5103750;28;20040;-83
2023/01/21 10:01:39;;;;;;;3.20;1.73;;;-0.30;99.90;;;;;;5084187;28;20036;-83
2023/01/21 10:04:23;;;;;;;1.48;1.38;;;-0.30;99.90;;;;;;5097445;28;20067;-83
2023/01/21 10:06:56;;;;;;;0.30;0.30;;;-0.20;99.90;;;;;;5103403;28;20103;-83
2023/01/21 10:09:54;;;;;;;0.37;0.37;;;-0.20;99.90;;;;;;5104129;28;20092;-83
2023/01/21 10:12:53;;;;;;;8.70;4.30;;;-0.20;99.90;;;;;;5104416;28;20044;-83
2023/01/21 10:15:36;;;;;;;0.80;0.80;;;-0.10;99.90;;;;;;5103244;28;20044;-82
2023/01/21 10:18:25;;;;;;;0.70;0.55;;;0.00;99.90;;;;;;5103526;28;20074;-83
2023/01/21 10:21:03;;;;;;;1.53;1.43;;;0.00;99.90;;;;;;5103514;28;20100;-83
2023/01/21 10:23:41;;;;;;;0.73;0.73;;;0.10;99.90;;;;;;5105171;28;20044;-83
2023/01/21 10:26:10;;;;;;;0.20;0.20;;;0.10;99.90;;;;;;5105190;28;20467;-83
2023/01/21 10:28:42;;;;;;;1.50;1.40;;;0.10;99.90;;;;;;5103996;28;20044;-84
2023/01/21 10:31:24;;;;;;;1.13;0.93;;;0.20;99.90;;;;;;5105359;28;20495;-83
2023/01/21 10:33:50;;;;;;;0.82;0.82;;;0.20;99.90;;;;;;5104488;28;20395;-83
2023/01/21 10:36:32;;;;;;;1.50;1.40;;;0.20;99.90;;;;;;5105364;28;20048;-83
2023/01/21 10:39:12;;;;;;;0.70;0.70;;;0.30;99.90;;;;;;5105315;28;20044;-84
2023/01/21 10:41:55;;;;;;;1.88;1.35;;;0.30;99.90;;;;;;5105554;28;20040;-84
2023/01/21 10:44:38;;;;;;;1.45;1.35;;;0.30;99.90;;;;;;5105715;28;20125;-84
2023/01/21 10:47:22;;;;;;;4.13;2.78;;;0.40;99.90;;;;;;5105620;28;20067;-83
2023/01/21 10:50:13;;;;;;;0.80;0.80;;;0.40;99.90;;;;;;5105503;28;20143;-83
2023/01/21 10:52:55;;;;;;;4.07;1.80;;;0.40;99.90;;;;;;5105510;28;20046;-83
2023/01/21 10:55:50;;;;;;;3.43;2.60;;;0.50;99.90;;;;;;5105430;28;20129;-84
2023/01/21 10:58:30;;;;;;;2.30;1.23;;;0.60;99.90;;;;;;5105022;28;20065;-84
2023/01/21 11:01:00;;;;;;;1.55;1.10;;;0.60;99.90;;;;;;5104509;28;20044;-84
2023/01/21 11:03:42;;;;;;;0.97;0.97;;;0.70;99.90;;;;;;5105028;28;20419;-83
2023/01/21 11:06:11;;;;;;;1.30;0.95;;;0.70;99.90;;;;;;5104057;28;20035;-83
2023/01/21 11:08:38;;;;;;;0.63;0.63;;;0.80;99.90;;;;;;5105119;28;20086;-83
2023/01/21 11:11:06;;;;;;;1.80;1.70;;;0.90;99.90;;;;;;5104512;28;20481;-84
2023/01/21 11:13:32;;;;;;;3.17;2.57;;;0.90;99.90;;;;;;5104393;28;20043;-83
2023/01/21 11:15:58;;;;;;;1.70;1.60;;;1.00;99.90;;;;;;5104216;28;20043;-83
2023/01/21 11:18:41;;;;;;;0.82;0.82;;;1.10;99.90;;;;;;5103815;28;20114;-84
2023/01/21 11:21:22;;;;;;;0.32;0.32;;;1.00;99.90;;;;;;5103194;28;20036;-84
2023/01/21 11:23:59;;;;;;;2.00;1.33;;;1.20;99.90;;;;;;5103707;28;20079;-84
2023/01/21 11:26:30;;;;;;;1.38;1.27;;;1.30;99.90;;;;;;5083234;28;20051;-84
2023/01/21 11:29:06;;;;;;;0.93;0.90;;;1.40;99.90;;;;;;5095522;28;20052;-83
2023/01/21 11:31:33;;;;;;;2.20;2.00;;;1.50;99.90;;;;;;5102971;28;20080;-83
2023/01/21 11:34:19;;;;;;;3.30;2.20;;;1.60;99.90;;;;;;5103221;28;20089;-83
2023/01/21 11:37:05;;;;;;;1.27;1.17;;;1.60;99.90;;;;;;5101854;28;20040;-84
2023/01/21 11:39:34;;;;;;;2.05;1.95;;;1.70;99.90;;;;;;5101779;28;20146;-84
2023/01/21 11:42:06;;;;;;;1.17;1.10;;;1.70;99.90;;;;;;5102417;28;20095;-83
2023/01/21 11:44:33;;;;;;;1.17;1.08;;;1.80;99.90;;;;;;5103351;28;20410;-83
2023/01/21 11:46:59;;;;;;;6.85;2.58;;;1.80;99.90;;;;;;5102817;28;20100;-84
2023/01/21 11:49:32;;;;;;;3.95;3.33;;;1.80;99.90;;;;;;5102567;28;20050;-84
2023/01/21 11:52:16;;;;;;;0.45;0.45;;;1.90;99.90;;;;;;5102705;28;20047;-84
2023/01/21 11:54:42;;;;;;;2.00;1.80;;;1.90;99.90;;;;;;5101902;28;20040;-83
2023/01/21 11:57:20;;;;;;;1.02;1.00;;;1.90;99.90;;;;;;5102276;28;20107;-83
2023/01/21 11:59:48;;;;;;;5.55;1.92;;;1.90;99.90;;;;;;5101587;28;20051;-83
2023/01/21 12:02:19;;;;;;;0.52;0.52;;;1.90;99.90;;;;;;5101467;28;20070;-83
2023/01/21 12:04:52;;;;;;;0.95;0.95;;;2.00;99.90;;;;;;5100552;28;20051;-83
2023/01/21 12:07:20;;;;;;;0.20;0.20;;;2.00;99.90;;;;;;5100245;28;20040;-84
2023/01/21 12:09:57;;;;;;;1.33;1.23;;;2.00;99.90;;;;;;5100895;28;20078;-83
2023/01/21 12:12:23;;;;;;;3.83;1.02;;;2.10;99.90;;;;;;5100017;28;20545;-84
2023/01/21 12:14:53;;;;;;;1.27;1.17;;;2.20;99.90;;;;;;5099291;28;20080;-84
2023/01/21 12:17:26;;;;;;;3.47;3.17;;;2.30;99.90;;;;;;5097902;28;20039;-84
2023/01/21 12:20:13;;;;;;;1.63;1.52;;;2.30;99.90;;;;;;5098107;28;20040;-84
2023/01/21 12:22:55;;;;;;;1.80;1.70;;;2.50;7.40;;;;;;5098415;28;20560;-84
2023/01/21 12:25:43;;;;;;;1.52;1.42;;;2.60;67.80;;;;;;5098244;28;20036;-84
2023/01/21 12:28:27;;;;;;;0.70;0.70;;;3.60;99.90;;;;;;5096487;28;20040;-84
2023/01/21 12:31:28;;;;;;;0.38;0.28;;;2.90;99.90;;;;;;5095641;28;20044;-84
2023/01/21 12:34:35;;;;;;;1.15;1.05;;;2.90;1.00;;;;;;5094483;28;20079;-85
2023/01/21 12:37:32;;;;;;;2.50;0.98;;;2.90;99.90;;;;;;5093581;28;20055;-84
2023/01/21 12:40:02;;;;;;;2.67;2.17;;;3.00;93.20;;;;;;5090433;28;20055;-83
2023/01/21 12:42:33;;;;;;;2.42;1.38;;;3.10;99.90;;;;;;5092334;28;20052;-83
2023/01/21 12:45:19;;;;;;;4.32;1.70;;;3.20;1.00;;;;;;5093829;28;20400;-85
2023/01/21 12:47:58;;;;;;;1.00;0.77;;;3.30;97.30;;;;;;5089914;27;20443;-83
2023/01/21 12:50:40;;;;;;;0.95;0.82;;;3.40;1.00;;;;;;5090840;28;20048;-83
2023/01/21 12:53:08;;;;;;;0.47;0.40;;;3.50;99.90;;;;;;5090070;28;20044;-83
2023/01/21 12:55:58;;;;;;;1.42;1.33;;;3.50;99.90;;;;;;5089857;28;20094;-83
2023/01/21 12:58:29;;;;;;;1.25;0.80;;;3.60;99.90;;;;;;5089845;28;20390;-83
2023/01/21 13:00:59;;;;;;;0.20;0.20;;;3.60;99.90;;;;;;5079410;28;20052;-83
2023/01/21 13:04:03;;;;;;;1.75;1.30;;;3.60;1.00;;;;;;5069721;28;20441;-84
2023/01/21 13:06:45;;;;;;;0.68;0.50;;;3.70;1.00;;;;;;5069714;28;20083;-83
2023/01/21 13:09:20;;;;;;;0.38;0.32;;;3.70;99.90;;;;;;5069887;28;20418;-84
2023/01/21 13:11:54;;;;;;;1.42;0.95;;;3.70;99.90;;;;;;5069652;28;20072;-83
2023/01/21 13:14:32;;;;;;;0.03;0.03;;;3.70;1.00;;;;;;5069765;28;20049;-84
2023/01/21 13:17:02;;;;;;;0.80;0.52;;;3.70;99.90;;;;;;5068867;28;20041;-84